Loman, Minnesota
Current Conditions -  °F | °C
As of 7:55 AM on Sunday 25 Jan 2015 (Local Time) from KINL Reporting Station
Overcast Overcast  
Wind Chill: -8°   Ceiling: 1200
Heat Index:   Visibility: 10mi
Dew Point: -5°   Wind: 6mph
Humidity: 69%   Direction: 90°E
Pressure: 30.02"   Gusts: NA
Location:  48.51°N, 93.8°W
Report Text: KINL 251355Z AUTO 09005KT 10SM OVC012 M16/M21 A3002 RMK AO2 SLP197 T11611206
Loading
Personal Weather Stations






























Interactive Weather Map New forecast layout! Learn more

10-Day Weather Forecast

Advertisements
Track Severe Weather on mobile